Caledonia, WI

5:37 PM CDT on September 02, 2015 (GMT -0500)
27th And Ryan Road | | Change Station
CLOSE
Current Station
Personal Weather Station
Location: Oak Creek, WI
Elevation: 720 ft
Nearby Weather Stations

Elev 720 ft 42.87 °N, 87.95 °W | Updated 2 seconds ago

Partly Cloudy
Partly Cloudy
84.2 °F
Feels Like 86 °F
N
0.0
Wind Variable Wind from SW
Gusts 3.0 mph

Today
High -- | Low -- °F
--% Chance of Precip.
Yesterday
High -- | Low -- °F
Precip. -- in
6:17 AM 7:24 PM
Waning Gibbous, 76% visible
Pressure 29.95 in
Visibility 8.0 miles
Clouds Few 5000 ft
Heat Index 86 °F
Dew Point 64 °F
Humidity 51%
Rainfall 0.00 in
Snow Depth Not available.
UV 0.0 out of 12
Pollen 10.60 out of 12
Air Quality Not available.
Flu Activity Not available.
METAR KRAC 022153Z AUTO 16005KT 8SM FEW050 28/19 A2996 RMK AO2 SLP140 T02830194
Pressure 29.95 in
Visibility 8.0 miles
Clouds Few 5000 ft
Heat Index 86 °F
Dew Point 64 °F
Humidity 51%
Rainfall 0.00 in
Snow Depth Not available.
UV 0.0 out of 12
Pollen 10.60 out of 12
Air Quality Not available.
Flu Activity Not available.
METAR KRAC 022153Z AUTO 16005KT 8SM FEW050 28/19 A2996 RMK AO2 SLP140 T02830194

10-Day Weather Forecast

×

Almanac

Astronomy

Sep. 02, 2015 Rise Set
Actual Time
Civil Twilight
Nautical Twilight
Astronomical Twilight
Moon
Length of Visible Light
Length of Day
Tomorrow will be .
, % of the Moon is Illuminated

Today's Extremes

State Highs State Lows

Community

WunderPhotos

Upload Photos

1,851,828 photos uploaded!

WunderBlogs® & News

Nearby

Air Quality

  Air Quality AQ Index Pollutant
Not available.

Snow Depth

Station Depth Elevation

Earthquake Activity

City Distance Mag. Time & Date
Minimum magnitude displayed is 2.5.

Coastal Water Temperatures

Place Temperature

Stations

Nearby Weather Stations

Station Location Temp. Windchill Dew Point Humidity Wind Precip. Elev Updated Type